Meridian Naval Air Station
KNMM : rendu visible

Aérodrome :











RETROUVEZ-NOUS SUR...

 
LOGIN :

S'inscrire | Disclaimer

   EN    FR    IT 

 









Légende :    VFR   VFR Marginal   IFR   IFR Intensif   IFR Très Intensif
Visi : 
Plafond : 
>= 8 km
>= 3000ft
5 à 8 km
1000 à 3000 ft
1500m à 5 km
500 à 1000 ft
800 à 1500m
200 à 500 ft
< 800m
< 200 ft
Symboles :   Orages  Brouillard  Fortes neiges  Fortes précipitations  Vent > 20 kt






- Altitude de l'aérodrome : 316 ft


KNMM - Meridian Naval Air Station

DERNIER METAR :
  • 162356Z AUTO 01005KT 10SM CLR 10/01 A3010 RMK AO2 SLP204 T01000006 10167 20100 53003 $

METARs EXPIRÉS :
  • 162256Z AUTO 36005KT 10SM CLR 12/00 A3010 RMK AO2 SLP203 T01220000 $
  • 162156Z AUTO 36008KT 10SM CLR 15/M01 A3009 RMK AO2 SLP201 T01501006 $

TAF TAF KNMM
Valide du 16 à 23h jusqu'au 17 à 23h UTC


1623/1723 VRB06KT 9999 SKC QNH3010INS AUTOMATED SENSOR METWATCH 1623 TIL 1721 T01/1712Z T17/1721Z FN00216



MET'MAP, la Météo Aéronautique d'un coup d'oeil ! - Copyright ORBIFLY Décembre 2007 - Disclaimer

ORBIFLY MET'MAP TEAM :

Programmation & Développement : Alexandra Zaïnal
Conception & Développement : Baudouin d'Aumeries
Co-Programmation & Développement : Marc-Olivier Méhu
Soutien technique & logistique : Manuel Goepfert

Contact : metmap@orbifly.com




SOURCES & CREDITS :

   NOAA       Earth
Advisory